Driscoll, Texas
Current Conditions -  °F | °C
As of 5:15 PM on Saturday 25 Oct 2014 (Local Time) from KRBO Reporting Station
Heavy Rain Heavy Rain  
Wind Chill: 84°   Ceiling: Unl
Heat Index: 85°   Visibility: 7mi
Dew Point: 61°   Wind: 10mph
Humidity: 45%   Direction: 90°E
Pressure: 30.08"   Gusts: NA
Location:  27.67°N, 97.75°W
Report Text: KRBO 252215Z AUTO 09009KT 7SM +RA CLR 29/16 A3008 RMK AO2 T02910162
Loading
Personal Weather Stations






























Interactive Weather Map
Tropical Storm Tracking
New forecast layout! Learn more

10-Day Weather Forecast

Advertisements
Track Severe Weather on mobile